createdAt,value
2023-10-02T00:01:38.374Z,100342.63
2023-10-02T00:03:42.750Z,100343.59
2023-10-02T00:06:08.081Z,100343.38
2023-10-02T00:08:26.695Z,100343.25
2023-10-02T00:10:31.899Z,100340.56
2023-10-02T00:12:36.404Z,100340.00
2023-10-02T00:14:45.223Z,100339.56
2023-10-02T00:17:02.297Z,100338.69
2023-10-02T00:19:19.997Z,100337.66
2023-10-02T00:21:23.910Z,100341.69
2023-10-02T00:23:26.956Z,100339.72
2023-10-02T00:25:29.686Z,100340.00
2023-10-02T00:27:32.535Z,100345.38
2023-10-02T00:29:36.012Z,100332.84
2023-10-02T00:31:39.630Z,100343.19
2023-10-02T00:33:42.228Z,100344.22
2023-10-02T00:35:53.947Z,100333.66
2023-10-02T00:37:56.905Z,100340.91
2023-10-02T00:40:00.513Z,100349.50
2023-10-02T00:42:22.879Z,100341.44
2023-10-02T00:44:25.329Z,100348.97
2023-10-02T00:46:27.845Z,100349.13
2023-10-02T00:48:30.673Z,100349.13
2023-10-02T00:50:50.733Z,100346.50
2023-10-02T00:53:04.893Z,100344.06
2023-10-02T00:55:08.518Z,100345.69
2023-10-02T00:57:18.585Z,100343.91
2023-10-02T00:59:24.474Z,100348.63
2023-10-02T01:01:27.859Z,100343.25
2023-10-02T01:03:50.350Z,100346.13
2023-10-02T01:05:55.624Z,100335.22
2023-10-02T01:08:00.116Z,100344.38
2023-10-02T01:10:09.638Z,100351.53
2023-10-02T01:12:12.554Z,100359.09
2023-10-02T01:14:35.028Z,100360.97
2023-10-02T01:16:38.110Z,100362.13
2023-10-02T01:18:41.225Z,100356.84
2023-10-02T01:20:54.944Z,100371.53
2023-10-02T01:23:13.382Z,100365.22
2023-10-02T01:25:17.488Z,100369.78
2023-10-02T01:27:23.523Z,100368.81
2023-10-02T01:29:26.013Z,100373.50
2023-10-02T01:31:37.489Z,100378.91
2023-10-02T01:33:40.424Z,100386.91
2023-10-02T01:35:48.023Z,100384.34
2023-10-02T01:37:53.888Z,100383.47
2023-10-02T01:40:16.199Z,100388.13
2023-10-02T01:42:18.643Z,100392.75
2023-10-02T01:44:24.409Z,100385.69
2023-10-02T01:46:27.062Z,100386.50
2023-10-02T01:48:39.520Z,100383.81
2023-10-02T01:50:46.379Z,100385.84
2023-10-02T01:52:52.461Z,100378.72
2023-10-02T01:54:55.853Z,100382.25
2023-10-02T01:56:58.865Z,100384.28
2023-10-02T01:59:12.293Z,100381.69
2023-10-02T02:01:16.940Z,100381.84
2023-10-02T02:03:20.314Z,100382.47
2023-10-02T02:05:22.906Z,100382.66
2023-10-02T02:07:25.308Z,100390.97
2023-10-02T02:09:37.726Z,100395.03
2023-10-02T02:11:40.037Z,100389.56
2023-10-02T02:13:46.595Z,100388.69
2023-10-02T02:15:53.117Z,100396.84
2023-10-02T02:17:55.997Z,100385.22
2023-10-02T02:20:12.579Z,100380.75
2023-10-02T02:22:27.630Z,100389.22
2023-10-02T02:24:36.173Z,100388.13
2023-10-02T02:26:43.036Z,100381.97
2023-10-02T02:28:46.051Z,100388.34
2023-10-02T02:30:49.033Z,100391.97
2023-10-02T02:32:56.235Z,100392.06
2023-10-02T02:35:02.842Z,100392.25
2023-10-02T02:37:07.988Z,100401.19
2023-10-02T02:39:17.762Z,100394.06
2023-10-02T02:41:20.273Z,100395.78
2023-10-02T02:43:24.385Z,100398.53
2023-10-02T02:45:31.608Z,100402.19
2023-10-02T02:47:52.842Z,100394.06
2023-10-02T02:50:01.345Z,100394.06
2023-10-02T02:52:03.952Z,100396.88
2023-10-02T02:54:06.814Z,100404.13
2023-10-02T02:56:25.441Z,100396.00
2023-10-02T02:58:30.713Z,100400.59
2023-10-02T03:00:33.558Z,100397.22
2023-10-02T03:02:38.049Z,100410.63
2023-10-02T03:04:40.772Z,100408.94
2023-10-02T03:06:43.536Z,100407.25
2023-10-02T03:08:46.966Z,100412.88
2023-10-02T03:10:58.807Z,100409.25
2023-10-02T03:13:02.362Z,100413.84
2023-10-02T03:15:07.234Z,100416.59
2023-10-02T03:17:30.089Z,100417.44
2023-10-02T03:19:32.889Z,100419.31
2023-10-02T03:21:39.752Z,100423.00
2023-10-02T03:23:43.929Z,100421.28
2023-10-02T03:25:49.136Z,100418.56
2023-10-02T03:27:52.269Z,100422.13
2023-10-02T03:29:55.559Z,100420.31
2023-10-02T03:31:59.510Z,100420.41
2023-10-02T03:34:23.627Z,100417.78
2023-10-02T03:36:26.024Z,100417.59
2023-10-02T03:38:34.544Z,100416.03
2023-10-02T03:40:36.978Z,100416.91
2023-10-02T03:42:39.421Z,100419.63
2023-10-02T03:44:46.958Z,100416.09
2023-10-02T03:46:50.246Z,100417.06
2023-10-02T03:49:00.526Z,100419.75
2023-10-02T03:51:06.360Z,100421.03
2023-10-02T03:53:30.395Z,100426.28
2023-10-02T03:55:35.196Z,100425.56
2023-10-02T03:57:57.106Z,100427.34
2023-10-02T04:00:18.808Z,100430.16
2023-10-02T04:02:27.173Z,100429.41
2023-10-02T04:04:34.094Z,100429.41
2023-10-02T04:06:39.457Z,100422.16
2023-10-02T04:08:42.542Z,100425.78
2023-10-02T04:11:00.309Z,100432.13
2023-10-02T04:13:03.465Z,100434.91
2023-10-02T04:15:12.858Z,100432.34
2023-10-02T04:17:18.064Z,100436.13
2023-10-02T04:19:26.971Z,100439.81
2023-10-02T04:21:31.072Z,100439.88
2023-10-02T04:23:39.822Z,100441.69
2023-10-02T04:25:44.514Z,100452.63
2023-10-02T04:27:46.944Z,100446.34
2023-10-02T04:30:08.186Z,100447.28
2023-10-02T04:32:20.182Z,100446.53
2023-10-02T04:34:31.229Z,100450.16
2023-10-02T04:36:36.413Z,100450.25
2023-10-02T04:38:51.426Z,100461.25
2023-10-02T04:40:54.112Z,100462.22
2023-10-02T04:43:00.076Z,100471.28
2023-10-02T04:45:21.975Z,100466.78
2023-10-02T04:47:28.473Z,100480.38
2023-10-02T04:49:31.060Z,100482.13
2023-10-02T04:51:37.513Z,100474.06
2023-10-02T04:53:47.500Z,100476.72
2023-10-02T04:56:15.191Z,100481.38
2023-10-02T04:58:21.581Z,100480.47
2023-10-02T05:00:34.387Z,100474.97
2023-10-02T05:02:40.701Z,100473.28
2023-10-02T05:04:44.205Z,100472.38
2023-10-02T05:06:54.492Z,100483.16
2023-10-02T05:08:57.108Z,100474.19
2023-10-02T05:11:07.085Z,100480.38
2023-10-02T05:13:11.204Z,100478.59
2023-10-02T05:15:22.305Z,100477.69
2023-10-02T05:17:43.425Z,100481.09
2023-10-02T05:19:58.564Z,100482.78
2023-10-02T05:22:02.488Z,100479.00
2023-10-02T05:24:13.757Z,100480.72
2023-10-02T05:26:31.428Z,100483.25
2023-10-02T05:28:46.892Z,100484.00
2023-10-02T05:30:49.856Z,100489.31
2023-10-02T05:32:53.456Z,100494.72
2023-10-02T05:35:14.480Z,100495.44
2023-10-02T05:37:24.577Z,100489.59
2023-10-02T05:39:29.748Z,100489.31
2023-10-02T05:41:42.532Z,100496.13
2023-10-02T05:43:57.260Z,100498.22
2023-10-02T05:45:59.956Z,100499.84
2023-10-02T05:48:02.358Z,100510.53
2023-10-02T05:50:06.048Z,100504.47
2023-10-02T05:52:12.444Z,100516.66
2023-10-02T05:54:15.405Z,100513.47
2023-10-02T05:56:17.928Z,100512.63
2023-10-02T05:58:29.114Z,100516.09
2023-10-02T06:00:37.354Z,100518.59
2023-10-02T06:03:00.785Z,100522.66
2023-10-02T06:05:13.496Z,100522.09
2023-10-02T06:07:39.171Z,100523.78
2023-10-02T06:09:48.516Z,100527.06
2023-10-02T06:12:07.205Z,100523.09
2023-10-02T06:14:12.762Z,100528.41
2023-10-02T06:16:16.052Z,100525.25
2023-10-02T06:18:29.165Z,100525.56
2023-10-02T06:20:32.024Z,100527.66
2023-10-02T06:22:34.501Z,100526.34
2023-10-02T06:24:37.595Z,100538.59
2023-10-02T06:26:59.514Z,100541.84
2023-10-02T06:29:21.027Z,100543.16
2023-10-02T06:31:32.673Z,100544.44
2023-10-02T06:33:39.304Z,100544.94
2023-10-02T06:35:55.550Z,100547.06
2023-10-02T06:38:18.902Z,100543.00
2023-10-02T06:40:25.142Z,100544.22
2023-10-02T06:42:30.417Z,100543.91
2023-10-02T06:44:53.813Z,100546.19
2023-10-02T06:46:58.002Z,100547.41
2023-10-02T06:49:00.835Z,100546.50
2023-10-02T06:51:05.915Z,100543.25
2023-10-02T06:53:09.112Z,100546.72
2023-10-02T06:55:13.210Z,100553.91
2023-10-02T06:57:18.203Z,100547.66
2023-10-02T06:59:23.301Z,100553.25
2023-10-02T07:01:29.550Z,100549.25
2023-10-02T07:03:35.700Z,100556.03
2023-10-02T07:05:40.682Z,100557.34
2023-10-02T07:08:00.887Z,100557.81
2023-10-02T07:10:09.955Z,100561.78
2023-10-02T07:12:15.219Z,100560.31
2023-10-02T07:14:18.172Z,100562.78
2023-10-02T07:16:20.652Z,100557.56
2023-10-02T07:18:36.906Z,100559.66
2023-10-02T07:20:45.834Z,100564.00
2023-10-02T07:22:52.946Z,100563.56
2023-10-02T07:25:00.323Z,100566.81
2023-10-02T07:27:03.868Z,100576.09
2023-10-02T07:29:06.392Z,100573.03
2023-10-02T07:31:12.138Z,100578.03
2023-10-02T07:33:15.235Z,100579.06
2023-10-02T07:35:23.607Z,100572.38
2023-10-02T07:37:26.973Z,100575.72
2023-10-02T07:39:39.090Z,100581.09
2023-10-02T07:41:42.466Z,100573.34
2023-10-02T07:43:45.760Z,100574.56
2023-10-02T07:46:16.232Z,100571.16
2023-10-02T07:48:21.320Z,100563.00
2023-10-02T07:50:35.030Z,100567.00
2023-10-02T07:52:39.725Z,100568.78
2023-10-02T07:54:50.086Z,100566.16
2023-10-02T07:56:53.369Z,100569.00
2023-10-02T07:58:56.771Z,100565.72
2023-10-02T08:01:07.821Z,100559.88
2023-10-02T08:03:33.565Z,100567.78
2023-10-02T08:05:36.532Z,100549.03
2023-10-02T08:07:44.386Z,100563.84
2023-10-02T08:09:49.623Z,100564.34
2023-10-02T08:11:53.966Z,100563.16
2023-10-02T08:13:56.448Z,100563.63
2023-10-02T08:15:59.896Z,100568.47
2023-10-02T08:18:05.871Z,100568.66
2023-10-02T08:20:18.012Z,100569.03
2023-10-02T08:22:21.608Z,100572.16
2023-10-02T08:24:23.994Z,100572.50
2023-10-02T08:26:28.636Z,100571.56
2023-10-02T08:28:35.177Z,100571.16
2023-10-02T08:30:38.667Z,100569.78
2023-10-02T08:32:41.266Z,100569.88
2023-10-02T08:34:43.863Z,100573.38
2023-10-02T08:36:47.650Z,100568.38
2023-10-02T08:38:55.137Z,100570.59
2023-10-02T08:41:05.543Z,100572.88
2023-10-02T08:43:08.090Z,100567.19
2023-10-02T08:45:29.400Z,100573.03
2023-10-02T08:47:36.989Z,100567.63
2023-10-02T08:49:42.836Z,100571.44
2023-10-02T08:51:51.484Z,100561.94
2023-10-02T08:53:59.530Z,100558.41
2023-10-02T08:56:01.858Z,100559.84
2023-10-02T08:58:17.666Z,100558.09
2023-10-02T09:00:25.810Z,100554.25
2023-10-02T09:02:28.706Z,100555.78
2023-10-02T09:04:31.388Z,100559.72
2023-10-02T09:06:42.843Z,100562.25
2023-10-02T09:09:05.146Z,100562.78
2023-10-02T09:11:09.583Z,100553.47
2023-10-02T09:13:17.937Z,100555.34
2023-10-02T09:15:34.648Z,100568.03
2023-10-02T09:17:45.753Z,100570.66
2023-10-02T09:19:55.598Z,100573.03
2023-10-02T09:22:12.366Z,100560.56
2023-10-02T09:24:20.838Z,100559.78
2023-10-02T09:26:25.924Z,100559.75
2023-10-02T09:28:43.356Z,100556.47
2023-10-02T09:30:47.361Z,100548.47
2023-10-02T09:33:04.211Z,100562.34
2023-10-02T09:35:15.597Z,100563.50
2023-10-02T09:38:03.437Z,100553.94
2023-10-02T09:39:51.514Z,100561.34
2023-10-02T09:42:08.343Z,100557.25
2023-10-02T09:44:30.166Z,100559.78
2023-10-02T09:46:36.901Z,100557.16
2023-10-02T09:49:04.317Z,100557.88
2023-10-02T09:51:12.066Z,100559.75
2023-10-02T09:53:18.015Z,100559.38
2023-10-02T09:55:43.501Z,100558.41
2023-10-02T09:57:51.805Z,100553.59
2023-10-02T09:59:56.449Z,100566.06
2023-10-02T10:02:10.648Z,100562.03
2023-10-02T10:04:31.835Z,100558.44
2023-10-02T10:06:50.400Z,100559.44
2023-10-02T10:09:13.920Z,100550.94
2023-10-02T10:11:20.291Z,100553.81
2023-10-02T10:13:33.662Z,100555.06
2023-10-02T10:15:37.921Z,100545.63
2023-10-02T10:17:51.233Z,100546.38
2023-10-02T10:20:11.043Z,100553.38
2023-10-02T10:22:36.931Z,100542.88
2023-10-02T10:25:21.325Z,100550.91
2023-10-02T10:27:39.987Z,100537.81
2023-10-02T10:29:43.466Z,100539.31
2023-10-02T10:31:57.678Z,100532.25
2023-10-02T10:34:01.295Z,100537.38
2023-10-02T10:36:10.569Z,100537.09
2023-10-02T10:38:28.476Z,100539.75
2023-10-02T10:41:01.096Z,100535.13
2023-10-02T10:43:07.589Z,100536.63
2023-10-02T10:45:12.253Z,100538.72
2023-10-02T10:47:19.792Z,100529.25
2023-10-02T10:49:25.839Z,100532.25
2023-10-02T10:51:35.512Z,100527.88
2023-10-02T10:53:43.118Z,100532.63
2023-10-02T10:55:46.308Z,100527.13
2023-10-02T10:57:53.074Z,100527.25
2023-10-02T11:00:28.503Z,100518.78
2023-10-02T11:02:31.131Z,100520.13
2023-10-02T11:04:35.814Z,100509.03
2023-10-02T11:06:46.211Z,100507.66
2023-10-02T11:09:17.691Z,100516.13
2023-10-02T11:11:27.040Z,100513.25
2023-10-02T11:13:30.771Z,100510.84
2023-10-02T11:15:50.125Z,100514.84
2023-10-02T11:17:52.686Z,100505.50
2023-10-02T11:19:57.035Z,100500.75
2023-10-02T11:22:23.270Z,100499.53
2023-10-02T11:24:25.775Z,100500.13
2023-10-02T11:26:28.279Z,100507.22
2023-10-02T11:28:34.282Z,100501.06
2023-10-02T11:30:38.454Z,100494.97
2023-10-02T11:33:20.949Z,100495.47
2023-10-02T11:35:30.697Z,100492.59
2023-10-02T11:37:33.777Z,100482.97
2023-10-02T11:39:36.489Z,100488.59
2023-10-02T11:41:39.079Z,100493.22
2023-10-02T11:43:41.646Z,100482.34
2023-10-02T11:45:44.283Z,100471.34
2023-10-02T11:47:49.745Z,100478.06
2023-10-02T11:49:52.888Z,100476.66
2023-10-02T11:51:55.325Z,100473.06
2023-10-02T11:54:00.364Z,100473.06
2023-10-02T11:56:02.925Z,100471.53
2023-10-02T11:58:06.165Z,100466.63
2023-10-02T12:00:13.873Z,100469.38
2023-10-02T12:02:18.425Z,100481.41
2023-10-02T12:04:20.968Z,100474.13
2023-10-02T12:06:25.435Z,100471.75
2023-10-02T12:08:28.137Z,100475.63
2023-10-02T12:10:31.935Z,100476.50
2023-10-02T12:12:34.499Z,100476.38
2023-10-02T12:14:37.005Z,100476.00
2023-10-02T12:16:39.828Z,100464.25
2023-10-02T12:18:42.721Z,100470.00
2023-10-02T12:20:45.231Z,100466.50
2023-10-02T12:22:48.068Z,100469.84
2023-10-02T12:24:50.668Z,100463.09
2023-10-02T12:26:53.693Z,100461.59
2023-10-02T12:28:56.972Z,100462.00
2023-10-02T12:31:01.099Z,100466.25
2023-10-02T12:33:03.733Z,100467.09
2023-10-02T12:35:07.125Z,100454.50
2023-10-02T12:37:11.309Z,100464.63
2023-10-02T12:39:18.261Z,100453.03
2023-10-02T12:41:28.587Z,100451.06
2023-10-02T12:43:32.153Z,100446.41
2023-10-02T12:45:37.889Z,100446.69
2023-10-02T12:47:42.200Z,100442.81
2023-10-02T12:49:44.802Z,100443.41
2023-10-02T12:51:47.632Z,100451.53
2023-10-02T12:53:51.136Z,100452.59
2023-10-02T12:55:53.933Z,100441.38
2023-10-02T12:57:56.519Z,100444.22
2023-10-02T12:59:58.944Z,100443.09
2023-10-02T13:02:03.750Z,100447.56
2023-10-02T13:04:06.692Z,100437.19
2023-10-02T13:06:13.598Z,100444.72
2023-10-02T13:08:16.190Z,100434.28
2023-10-02T13:10:18.700Z,100439.94
2023-10-02T13:12:21.290Z,100440.72
2023-10-02T13:14:24.917Z,100435.63
2023-10-02T13:16:27.538Z,100430.88
2023-10-02T13:18:31.522Z,100429.13
2023-10-02T13:20:34.626Z,100425.75
2023-10-02T13:22:40.170Z,100433.16
2023-10-02T13:24:44.116Z,100426.28
2023-10-02T13:26:46.753Z,100420.19
2023-10-02T13:28:53.829Z,100426.56
2023-10-02T13:30:56.411Z,100425.03
2023-10-02T13:32:59.250Z,100422.75
2023-10-02T13:35:01.796Z,100415.38
2023-10-02T13:37:06.757Z,100404.78
2023-10-02T13:39:14.734Z,100403.44
2023-10-02T13:41:18.939Z,100408.06
2023-10-02T13:43:21.811Z,100397.44
2023-10-02T13:45:26.243Z,100400.06
2023-10-02T13:47:36.857Z,100395.03
2023-10-02T13:49:40.005Z,100403.69
2023-10-02T13:51:43.237Z,100411.69
2023-10-02T13:53:46.531Z,100405.56
2023-10-02T13:55:48.968Z,100404.69
2023-10-02T13:57:52.173Z,100405.81
2023-10-02T13:59:54.680Z,100402.22
2023-10-02T14:01:57.277Z,100401.06
2023-10-02T14:04:00.212Z,100408.94
2023-10-02T14:06:10.398Z,100398.03
2023-10-02T14:08:13.455Z,100400.06
2023-10-02T14:10:17.996Z,100398.47
2023-10-02T14:12:20.570Z,100402.22
2023-10-02T14:14:26.987Z,100400.13
2023-10-02T14:16:29.633Z,100405.09
2023-10-02T14:18:32.096Z,100403.22
2023-10-02T14:20:34.771Z,100402.94
2023-10-02T14:22:38.626Z,100395.84
2023-10-02T14:24:41.139Z,100398.59
2023-10-02T14:26:43.681Z,100393.97
2023-10-02T14:28:46.671Z,100397.44
2023-10-02T14:30:49.671Z,100392.72
2023-10-02T14:32:52.762Z,100391.22
2023-10-02T14:34:56.918Z,100391.47
2023-10-02T14:37:00.271Z,100398.09
2023-10-02T14:39:05.703Z,100401.47
2023-10-02T14:41:10.881Z,100399.88
2023-10-02T14:43:13.833Z,100397.50
2023-10-02T14:45:16.778Z,100398.38
2023-10-02T14:47:19.885Z,100393.69
2023-10-02T14:49:22.367Z,100396.66
2023-10-02T14:51:25.065Z,100396.66
2023-10-02T14:53:27.971Z,100404.03
2023-10-02T14:55:32.492Z,100395.56
2023-10-02T14:57:36.314Z,100397.34
2023-10-02T14:59:38.970Z,100399.94
2023-10-02T15:01:41.568Z,100398.19
2023-10-02T15:03:44.788Z,100403.97
2023-10-02T15:05:47.448Z,100404.34
2023-10-02T15:07:52.632Z,100407.97
2023-10-02T15:09:56.107Z,100401.44
2023-10-02T15:11:58.849Z,100407.34
2023-10-02T15:14:01.386Z,100406.34
2023-10-02T15:16:05.311Z,100406.22
2023-10-02T15:18:11.651Z,100405.97
2023-10-02T15:20:18.572Z,100396.22
2023-10-02T15:22:21.227Z,100398.22
2023-10-02T15:24:25.468Z,100404.72
2023-10-02T15:26:28.168Z,100400.63
2023-10-02T15:28:30.750Z,100399.00
2023-10-02T15:30:33.230Z,100402.13
2023-10-02T15:32:35.722Z,100399.50
2023-10-02T15:34:38.313Z,100400.63
2023-10-02T15:36:40.741Z,100398.28
2023-10-02T15:38:46.992Z,100402.00
2023-10-02T15:40:49.664Z,100389.56
2023-10-02T15:42:54.621Z,100396.38
2023-10-02T15:44:57.118Z,100413.09
2023-10-02T15:46:59.732Z,100403.38
2023-10-02T15:49:04.872Z,100403.75
2023-10-02T15:51:07.374Z,100412.25
2023-10-02T15:53:09.931Z,100413.59
2023-10-02T15:55:14.571Z,100413.09
2023-10-02T15:57:19.778Z,100418.84
2023-10-02T15:59:23.214Z,100417.59
2023-10-02T16:01:25.961Z,100413.63
2023-10-02T16:03:28.777Z,100422.31
2023-10-02T16:05:33.793Z,100421.06
2023-10-02T16:07:39.909Z,100426.94
2023-10-02T16:09:42.417Z,100427.50
2023-10-02T16:11:44.973Z,100428.22
2023-10-02T16:13:47.563Z,100437.69
2023-10-02T16:15:50.045Z,100435.56
2023-10-02T16:17:55.181Z,100432.41
2023-10-02T16:19:57.889Z,100440.00
2023-10-02T16:22:00.445Z,100440.47
2023-10-02T16:24:06.136Z,100443.03
2023-10-02T16:26:16.222Z,100452.84
2023-10-02T16:28:18.729Z,100449.47
2023-10-02T16:30:24.583Z,100450.94
2023-10-02T16:32:31.629Z,100452.28
2023-10-02T16:34:34.243Z,100441.72
2023-10-02T16:36:36.940Z,100449.41
2023-10-02T16:38:48.713Z,100450.00
2023-10-02T16:40:59.552Z,100449.47
2023-10-02T16:43:06.272Z,100450.16
2023-10-02T16:45:18.533Z,100450.50
2023-10-02T16:47:21.682Z,100456.22
2023-10-02T16:49:24.497Z,100456.78
2023-10-02T16:51:26.862Z,100448.13
2023-10-02T16:53:29.526Z,100443.97
2023-10-02T16:55:32.260Z,100459.00
2023-10-02T16:57:34.770Z,100448.59
2023-10-02T16:59:37.390Z,100451.75
2023-10-02T17:01:40.121Z,100456.56
2023-10-02T17:03:42.817Z,100457.66
2023-10-02T17:05:45.425Z,100452.41
2023-10-02T17:07:51.738Z,100457.56
2023-10-02T17:09:57.280Z,100460.41
2023-10-02T17:12:01.181Z,100459.84
2023-10-02T17:14:04.044Z,100470.25
2023-10-02T17:16:06.709Z,100474.94
2023-10-02T17:18:09.187Z,100475.16
2023-10-02T17:20:17.586Z,100473.59
2023-10-02T17:22:20.706Z,100473.06
2023-10-02T17:24:23.255Z,100478.75
2023-10-02T17:26:27.156Z,100483.78
2023-10-02T17:28:31.479Z,100479.50
2023-10-02T17:30:33.926Z,100477.59
2023-10-02T17:32:36.620Z,100488.03
2023-10-02T17:34:40.056Z,100483.94
2023-10-02T17:36:42.913Z,100486.56
2023-10-02T17:38:45.501Z,100493.88
2023-10-02T17:40:48.140Z,100493.81
2023-10-02T17:42:51.036Z,100497.50
2023-10-02T17:44:53.578Z,100494.75
2023-10-02T17:46:57.506Z,100496.63
2023-10-02T17:49:00.216Z,100500.44
2023-10-02T17:51:03.009Z,100497.91
2023-10-02T17:53:05.596Z,100495.50
2023-10-02T17:55:08.934Z,100496.69
2023-10-02T17:57:14.792Z,100503.25
2023-10-02T17:59:18.014Z,100503.41
2023-10-02T18:01:20.534Z,100505.41
2023-10-02T18:03:23.232Z,100501.97
2023-10-02T18:05:26.101Z,100505.91
2023-10-02T18:07:32.979Z,100505.34
2023-10-02T18:09:36.988Z,100500.06
2023-10-02T18:11:48.578Z,100508.34
2023-10-02T18:13:51.016Z,100506.91
2023-10-02T18:15:55.280Z,100509.84
2023-10-02T18:18:01.684Z,100511.31
2023-10-02T18:20:05.140Z,100516.88
2023-10-02T18:22:08.003Z,100519.69
2023-10-02T18:24:12.990Z,100516.47
2023-10-02T18:26:15.543Z,100509.53
2023-10-02T18:28:18.206Z,100507.00
2023-10-02T18:30:22.967Z,100517.34
2023-10-02T18:32:25.469Z,100512.06
2023-10-02T18:34:42.279Z,100514.09
2023-10-02T18:36:45.181Z,100510.72
2023-10-02T18:38:47.791Z,100511.88
2023-10-02T18:40:59.284Z,100512.34
2023-10-02T18:43:01.971Z,100515.06
2023-10-02T18:45:07.678Z,100521.72
2023-10-02T18:47:11.155Z,100514.69
2023-10-02T18:49:16.359Z,100517.69
2023-10-02T18:51:20.343Z,100518.00
2023-10-02T18:53:22.980Z,100527.41
2023-10-02T18:55:25.427Z,100531.22
2023-10-02T18:57:28.685Z,100529.47
2023-10-02T18:59:33.263Z,100531.41
2023-10-02T19:01:37.136Z,100524.22
2023-10-02T19:03:40.254Z,100533.44
2023-10-02T19:05:46.847Z,100539.84
2023-10-02T19:07:49.341Z,100539.09
2023-10-02T19:09:51.857Z,100533.91
2023-10-02T19:11:54.569Z,100536.84
2023-10-02T19:13:57.787Z,100538.06
2023-10-02T19:16:00.337Z,100536.59
2023-10-02T19:18:02.993Z,100529.44
2023-10-02T19:20:06.892Z,100527.78
2023-10-02T19:22:09.394Z,100526.91
2023-10-02T19:24:11.853Z,100527.09
2023-10-02T19:26:14.923Z,100538.06
2023-10-02T19:28:17.544Z,100530.88
2023-10-02T19:30:20.066Z,100531.94
2023-10-02T19:32:22.792Z,100539.25
2023-10-02T19:34:28.384Z,100537.84
2023-10-02T19:36:30.981Z,100539.91
2023-10-02T19:38:36.012Z,100531.72
2023-10-02T19:40:38.620Z,100537.25
2023-10-02T19:42:41.342Z,100533.72
2023-10-02T19:44:44.172Z,100534.97
2023-10-02T19:46:49.537Z,100526.72
2023-10-02T19:48:52.800Z,100527.84
2023-10-02T19:50:55.562Z,100526.19
2023-10-02T19:52:58.496Z,100527.16
2023-10-02T19:55:01.086Z,100524.34
2023-10-02T19:57:04.683Z,100527.34
2023-10-02T19:59:08.023Z,100530.06
2023-10-02T20:01:11.205Z,100525.59
2023-10-02T20:03:13.948Z,100526.41
2023-10-02T20:05:16.639Z,100528.31
2023-10-02T20:07:19.332Z,100522.09
2023-10-02T20:09:25.380Z,100522.00
2023-10-02T20:11:28.172Z,100525.16
2023-10-02T20:13:31.050Z,100530.00
2023-10-02T20:15:33.643Z,100524.72
2023-10-02T20:17:36.401Z,100532.00
2023-10-02T20:19:40.680Z,100525.75
2023-10-02T20:21:44.618Z,100529.38
2023-10-02T20:23:53.543Z,100524.00
2023-10-02T20:25:57.252Z,100525.94
2023-10-02T20:27:59.678Z,100532.69
2023-10-02T20:30:03.042Z,100530.06
2023-10-02T20:32:05.733Z,100528.16
2023-10-02T20:34:08.271Z,100530.94
2023-10-02T20:36:11.418Z,100528.28
2023-10-02T20:38:15.313Z,100534.69
2023-10-02T20:40:18.011Z,100534.53
2023-10-02T20:42:20.516Z,100530.38
2023-10-02T20:44:23.021Z,100530.38
2023-10-02T20:46:25.634Z,100526.94
2023-10-02T20:48:28.528Z,100538.00
2023-10-02T20:50:31.049Z,100531.22
2023-10-02T20:52:33.636Z,100537.00
2023-10-02T20:54:36.062Z,100541.66
2023-10-02T20:56:40.319Z,100544.56
2023-10-02T20:58:42.876Z,100536.47
2023-10-02T21:00:45.329Z,100540.16
2023-10-02T21:02:48.334Z,100536.81
2023-10-02T21:04:50.935Z,100531.63
2023-10-02T21:06:53.806Z,100535.31
2023-10-02T21:08:59.679Z,100529.94
2023-10-02T21:11:02.448Z,100530.75
2023-10-02T21:13:05.062Z,100531.78
2023-10-02T21:15:12.798Z,100539.16
2023-10-02T21:17:15.536Z,100534.50
2023-10-02T21:19:18.053Z,100533.63
2023-10-02T21:21:22.481Z,100538.19
2023-10-02T21:23:25.036Z,100536.34
2023-10-02T21:25:27.506Z,100533.81
2023-10-02T21:27:30.158Z,100528.53
2023-10-02T21:29:32.615Z,100528.69
2023-10-02T21:31:35.177Z,100530.69
2023-10-02T21:33:37.979Z,100527.91
2023-10-02T21:35:41.412Z,100526.56
2023-10-02T21:37:43.971Z,100528.94
2023-10-02T21:39:46.495Z,100525.34
2023-10-02T21:41:49.019Z,100525.34
2023-10-02T21:43:52.173Z,100527.06
2023-10-02T21:45:55.473Z,100529.69
2023-10-02T21:47:58.106Z,100526.22
2023-10-02T21:50:01.018Z,100514.13
2023-10-02T21:52:03.976Z,100525.75
2023-10-02T21:54:07.353Z,100525.09
2023-10-02T21:56:13.034Z,100514.13
2023-10-02T21:58:15.404Z,100514.06
2023-10-02T22:00:36.040Z,100513.25
2023-10-02T22:02:38.418Z,100521.41
2023-10-02T22:04:43.597Z,100517.19
2023-10-02T22:06:47.383Z,100516.78
2023-10-02T22:08:50.233Z,100514.00
2023-10-02T22:10:54.085Z,100512.94
2023-10-02T22:12:57.056Z,100508.47
2023-10-02T22:14:59.513Z,100508.47
2023-10-02T22:17:17.348Z,100509.38
2023-10-02T22:19:20.324Z,100505.59
2023-10-02T22:21:24.950Z,100515.72
2023-10-02T22:23:28.086Z,100499.84
2023-10-02T22:25:30.653Z,100506.78
2023-10-02T22:27:33.722Z,100515.31
2023-10-02T22:29:36.233Z,100508.16
2023-10-02T22:31:39.839Z,100503.69
2023-10-02T22:33:43.691Z,100515.31
2023-10-02T22:35:46.332Z,100510.69
2023-10-02T22:37:48.744Z,100507.81
2023-10-02T22:39:51.134Z,100512.31
2023-10-02T22:41:53.514Z,100501.44
2023-10-02T22:43:56.093Z,100504.06
2023-10-02T22:46:02.672Z,100499.38
2023-10-02T22:48:06.371Z,100503.84
2023-10-02T22:50:09.702Z,100500.19
2023-10-02T22:52:15.693Z,100503.75
2023-10-02T22:54:18.102Z,100498.22
2023-10-02T22:56:20.569Z,100493.94
2023-10-02T22:58:23.125Z,100494.56
2023-10-02T23:00:25.743Z,100491.25
2023-10-02T23:02:28.469Z,100498.53
2023-10-02T23:04:31.621Z,100494.38
2023-10-02T23:06:34.136Z,100501.66
2023-10-02T23:08:36.837Z,100494.31
2023-10-02T23:10:39.381Z,100494.63
2023-10-02T23:12:41.902Z,100491.50
2023-10-02T23:14:44.317Z,100493.06
2023-10-02T23:16:46.917Z,100496.00
2023-10-02T23:18:49.656Z,100499.75
2023-10-02T23:20:52.142Z,100499.16
2023-10-02T23:22:54.725Z,100492.28
2023-10-02T23:24:57.605Z,100492.13
2023-10-02T23:27:00.018Z,100497.63
2023-10-02T23:29:02.914Z,100497.25
2023-10-02T23:31:05.760Z,100487.22
2023-10-02T23:33:08.316Z,100490.28
2023-10-02T23:35:12.757Z,100485.34
2023-10-02T23:37:15.303Z,100489.31
2023-10-02T23:39:18.458Z,100489.78
2023-10-02T23:41:22.564Z,100492.63
2023-10-02T23:43:25.880Z,100493.66
2023-10-02T23:45:29.207Z,100494.19
2023-10-02T23:47:31.835Z,100488.56
2023-10-02T23:49:34.289Z,100492.34
2023-10-02T23:51:36.963Z,100496.03
2023-10-02T23:53:43.242Z,100500.78
2023-10-02T23:55:46.052Z,100489.31
2023-10-02T23:57:48.501Z,100496.59
2023-10-02T23:59:51.203Z,100491.00
